Time;durP1;ratioP1;P1;durP2;ratioP2;P2;SDS_P1;SDS_P2;PMS_P1;PMS_P2;Temp;Humidity;BMP_temperature;BMP_pressure;BME280_temperature;BME280_humidity;BME280_pressure;Samples;Min_cycle;Max_cycle;Signal;HPM_P1;HPM_P2
2023/12/12 00:01:22;;;;;;;11.95;1.30;;;4.80;99.90;;;;;;5021556;28;20068;-66
2023/12/12 00:03:48;;;;;;;9.05;1.50;;;4.90;99.90;;;;;;5021433;28;20045;-66
2023/12/12 00:06:14;;;;;;;7.45;1.80;;;4.80;99.90;;;;;;5025917;28;20051;-66
2023/12/12 00:08:39;;;;;;;9.77;2.10;;;4.80;99.90;;;;;;5023769;28;20045;-66
2023/12/12 00:11:06;;;;;;;5.40;1.55;;;4.80;99.90;;;;;;5021876;28;20041;-66
2023/12/12 00:13:31;;;;;;;10.10;1.63;;;4.80;99.90;;;;;;5020471;28;20056;-66
2023/12/12 00:15:57;;;;;;;7.07;1.23;;;4.70;99.90;;;;;;5024070;28;20037;-66
2023/12/12 00:18:23;;;;;;;4.30;1.00;;;4.70;99.90;;;;;;5022367;28;20092;-66
2023/12/12 00:20:48;;;;;;;13.80;1.75;;;4.70;99.90;;;;;;5022841;28;20096;-67
2023/12/12 00:23:14;;;;;;;10.48;1.33;;;4.70;99.90;;;;;;5024640;28;20372;-66
2023/12/12 00:25:40;;;;;;;9.75;2.45;;;4.70;99.90;;;;;;5023974;28;20562;-66
2023/12/12 00:28:05;;;;;;;5.63;0.90;;;4.70;99.90;;;;;;5024411;28;20125;-66
2023/12/12 00:30:31;;;;;;;7.82;1.20;;;4.60;99.90;;;;;;5023398;28;20049;-66
2023/12/12 00:32:57;;;;;;;5.72;0.98;;;4.60;99.90;;;;;;5017913;28;20036;-66
2023/12/12 00:35:22;;;;;;;6.07;1.10;;;4.60;99.90;;;;;;5023304;28;20033;-66
2023/12/12 00:37:48;;;;;;;5.60;1.13;;;4.60;99.90;;;;;;5023397;28;20033;-66
2023/12/12 00:40:13;;;;;;;8.10;1.33;;;4.60;99.90;;;;;;5019567;28;20051;-66
2023/12/12 00:42:39;;;;;;;6.85;0.98;;;4.60;99.90;;;;;;5019465;28;20046;-66
2023/12/12 00:45:06;;;;;;;8.73;1.25;;;4.60;99.90;;;;;;5021893;28;20057;-66
2023/12/12 00:47:32;;;;;;;5.78;1.10;;;4.60;99.90;;;;;;5020811;28;20045;-66
2023/12/12 00:49:58;;;;;;;5.22;0.82;;;4.50;99.90;;;;;;5019085;28;20052;-66
2023/12/12 00:52:25;;;;;;;5.57;1.10;;;4.50;99.90;;;;;;5023068;28;20033;-66
2023/12/12 00:54:51;;;;;;;5.50;1.02;;;4.50;99.90;;;;;;5026123;28;20046;-67
2023/12/12 00:57:16;;;;;;;7.63;1.40;;;4.50;99.90;;;;;;5026232;28;20408;-66
2023/12/12 00:59:42;;;;;;;8.30;1.10;;;4.50;99.90;;;;;;5025714;28;20049;-66
2023/12/12 01:02:08;;;;;;;8.10;1.60;;;4.50;99.90;;;;;;5026434;28;20499;-66
2023/12/12 01:04:34;;;;;;;5.38;1.05;;;4.50;99.90;;;;;;5026382;28;20053;-66
2023/12/12 01:07:03;;;;;;;4.95;1.00;;;4.40;99.90;;;;;;5024747;28;20570;-66
2023/12/12 01:09:29;;;;;;;4.63;1.33;;;4.40;99.90;;;;;;5024036;28;20052;-66
2023/12/12 01:11:54;;;;;;;7.63;1.10;;;4.40;99.90;;;;;;5008679;28;20484;-66
2023/12/12 01:14:20;;;;;;;4.63;0.90;;;4.40;99.90;;;;;;5030389;28;20104;-66
2023/12/12 01:16:46;;;;;;;5.43;0.80;;;4.40;99.90;;;;;;5025506;28;20590;-66
2023/12/12 01:19:11;;;;;;;4.35;0.73;;;4.40;99.90;;;;;;5026583;28;20049;-66
2023/12/12 01:21:38;;;;;;;6.85;1.20;;;4.30;99.90;;;;;;5025803;28;20133;-66
2023/12/12 01:24:04;;;;;;;6.07;0.90;;;4.40;99.90;;;;;;5025639;28;20168;-66
2023/12/12 01:26:29;;;;;;;6.65;1.02;;;4.40;99.90;;;;;;5025675;28;20101;-66
2023/12/12 01:28:55;;;;;;;6.88;1.10;;;4.40;99.90;;;;;;5038820;28;20407;-66
2023/12/12 01:31:21;;;;;;;11.85;1.80;;;4.40;99.90;;;;;;5026456;28;20045;-66
2023/12/12 01:33:48;;;;;;;2.42;0.60;;;4.30;99.90;;;;;;5025272;28;20037;-66
2023/12/12 01:36:14;;;;;;;6.35;2.60;;;4.30;99.90;;;;;;5022213;28;20041;-66
2023/12/12 01:38:39;;;;;;;7.18;1.00;;;4.30;99.90;;;;;;5022428;28;20540;-66
2023/12/12 01:41:05;;;;;;;3.33;0.73;;;4.20;99.90;;;;;;5021933;28;20057;-66
2023/12/12 01:43:32;;;;;;;8.40;1.10;;;4.20;99.90;;;;;;5022903;28;20076;-66
2023/12/12 01:46:04;;;;;;;4.82;0.80;;;4.30;99.90;;;;;;5023838;28;20045;-66
2023/12/12 01:48:31;;;;;;;5.78;0.93;;;4.20;99.90;;;;;;5023828;28;20484;-66
2023/12/12 01:50:57;;;;;;;5.60;1.00;;;4.10;99.90;;;;;;5022383;28;20084;-66
2023/12/12 01:53:55;;;;;;;5.60;0.90;;;4.10;99.90;;;;;;5022463;28;20042;-66
2023/12/12 01:56:21;;;;;;;8.13;1.08;;;4.10;99.90;;;;;;5025505;28;20423;-66
2023/12/12 01:58:50;;;;;;;3.47;0.90;;;4.10;99.90;;;;;;5012459;28;20311;-66
2023/12/12 02:01:16;;;;;;;2.83;0.63;;;4.10;99.90;;;;;;5021190;28;20041;-66
2023/12/12 02:03:43;;;;;;;3.30;0.80;;;4.00;99.90;;;;;;5025329;28;20037;-66
2023/12/12 02:06:11;;;;;;;5.43;1.20;;;4.40;99.90;;;;;;5024130;28;20037;-66
2023/12/12 02:08:38;;;;;;;6.85;0.90;;;4.00;99.90;;;;;;5023310;28;20112;-66
2023/12/12 02:11:03;;;;;;;3.72;0.90;;;3.90;99.90;;;;;;5024359;28;20041;-66
2023/12/12 02:13:29;;;;;;;11.35;1.05;;;3.90;99.90;;;;;;5023964;28;20227;-66
2023/12/12 02:15:55;;;;;;;2.72;0.85;;;3.80;99.90;;;;;;5020467;28;20042;-66
2023/12/12 02:18:21;;;;;;;6.78;0.90;;;3.80;99.90;;;;;;5023509;28;20068;-66
2023/12/12 02:20:46;;;;;;;6.32;1.10;;;3.80;99.90;;;;;;5024884;28;20033;-66
2023/12/12 02:23:12;;;;;;;5.63;1.40;;;3.80;99.90;;;;;;5024427;28;20034;-66
2023/12/12 02:25:37;;;;;;;5.38;0.52;;;3.80;99.90;;;;;;5026669;28;20041;-66
2023/12/12 02:28:03;;;;;;;11.13;1.05;;;3.80;99.90;;;;;;5036009;28;20045;-66
2023/12/12 02:30:30;;;;;;;5.32;1.08;;;3.70;99.90;;;;;;5024605;28;20038;-66
2023/12/12 02:32:58;;;;;;;2.78;0.73;;;3.70;99.90;;;;;;5024340;28;20505;-66
2023/12/12 02:35:23;;;;;;;2.97;0.63;;;3.70;99.90;;;;;;5024013;28;20033;-66
2023/12/12 02:37:49;;;;;;;5.05;1.20;;;3.70;99.90;;;;;;5023792;28;20041;-66
2023/12/12 02:40:15;;;;;;;3.72;0.70;;;3.60;99.90;;;;;;5023949;28;20128;-66
2023/12/12 02:42:44;;;;;;;4.45;0.82;;;3.60;99.90;;;;;;5020347;28;20056;-66
2023/12/12 02:45:10;;;;;;;3.70;0.60;;;3.60;99.90;;;;;;5022590;28;20081;-66
2023/12/12 02:47:36;;;;;;;3.97;0.68;;;3.60;99.90;;;;;;5025776;28;20491;-66
2023/12/12 02:50:02;;;;;;;8.27;1.27;;;3.50;99.90;;;;;;5022542;28;20049;-66
2023/12/12 02:52:27;;;;;;;4.80;1.17;;;3.50;99.90;;;;;;5023723;28;20400;-66
2023/12/12 02:54:53;;;;;;;7.75;1.27;;;3.60;99.90;;;;;;5024538;28;20045;-66
2023/12/12 02:57:18;;;;;;;7.15;1.48;;;3.50;99.90;;;;;;5023831;28;20040;-66
2023/12/12 02:59:44;;;;;;;3.00;1.63;;;3.50;99.90;;;;;;5023550;28;20534;-66
2023/12/12 03:02:09;;;;;;;7.45;1.60;;;3.50;99.90;;;;;;5020988;28;20052;-66
2023/12/12 03:04:35;;;;;;;6.85;1.35;;;3.50;99.90;;;;;;5025981;28;20442;-66
2023/12/12 03:07:01;;;;;;;7.85;2.08;;;3.50;99.90;;;;;;5023165;28;20041;-66
2023/12/12 03:09:26;;;;;;;6.35;1.70;;;3.50;99.90;;;;;;5021252;28;20049;-66
2023/12/12 03:11:53;;;;;;;9.25;2.30;;;3.50;99.90;;;;;;5019990;28;20504;-66
2023/12/12 03:14:26;;;;;;;8.63;2.65;;;3.50;99.90;;;;;;5025088;28;20104;-66
2023/12/12 03:16:51;;;;;;;9.52;3.70;;;3.50;99.90;;;;;;5021388;28;20381;-66
2023/12/12 03:19:17;;;;;;;9.75;3.00;;;3.50;99.90;;;;;;5022704;28;20037;-66
2023/12/12 03:21:42;;;;;;;7.97;3.33;;;3.50;99.90;;;;;;5021918;28;20053;-66
2023/12/12 03:24:08;;;;;;;9.95;4.28;;;3.50;99.90;;;;;;5023512;28;20088;-66
2023/12/12 03:26:33;;;;;;;9.85;4.15;;;3.60;99.90;;;;;;5024005;28;20464;-66
2023/12/12 03:28:59;;;;;;;6.20;3.85;;;3.60;99.90;;;;;;5021121;28;20045;-66
2023/12/12 03:31:25;;;;;;;10.30;4.40;;;3.60;99.90;;;;;;5020815;28;20042;-66
2023/12/12 03:33:50;;;;;;;9.00;4.82;;;3.60;99.90;;;;;;5023647;28;20042;-66
2023/12/12 03:36:16;;;;;;;10.00;5.10;;;3.60;99.90;;;;;;5021859;28;20553;-66
2023/12/12 03:38:41;;;;;;;12.15;5.18;;;3.70;99.90;;;;;;5021144;28;20041;-66
2023/12/12 03:41:07;;;;;;;15.18;5.70;;;3.60;99.90;;;;;;5022093;28;20092;-66
2023/12/12 03:43:32;;;;;;;14.73;5.68;;;3.70;99.90;;;;;;5022700;28;20041;-66
2023/12/12 03:45:58;;;;;;;13.52;6.20;;;3.70;99.90;;;;;;5022054;28;20046;-66
2023/12/12 03:48:24;;;;;;;15.93;6.40;;;3.70;99.90;;;;;;5025458;28;20103;-66
2023/12/12 03:50:49;;;;;;;12.93;6.82;;;3.70;99.90;;;;;;5036202;28;20049;-66
2023/12/12 03:53:15;;;;;;;18.13;6.05;;;3.70;99.90;;;;;;5021914;28;20073;-66
2023/12/12 03:55:41;;;;;;;15.57;7.30;;;3.80;99.90;;;;;;5021928;28;20595;-66
2023/12/12 03:58:06;;;;;;;11.80;6.40;;;3.80;99.90;;;;;;5019022;28;20116;-66
2023/12/12 04:00:32;;;;;;;14.98;6.57;;;3.80;99.90;;;;;;5022760;28;20041;-66
2023/12/12 04:02:58;;;;;;;12.93;6.70;;;3.80;99.90;;;;;;5021817;28;20056;-66
2023/12/12 04:05:23;;;;;;;12.70;6.10;;;3.90;99.90;;;;;;5020682;28;20041;-66
2023/12/12 04:07:49;;;;;;;14.02;6.68;;;3.90;99.90;;;;;;5021700;28;20056;-66
2023/12/12 04:10:14;;;;;;;13.90;7.93;;;3.80;99.90;;;;;;5020049;28;20176;-66
2023/12/12 04:12:40;;;;;;;11.48;6.30;;;3.90;99.90;;;;;;5022299;28;20067;-66
2023/12/12 04:15:06;;;;;;;16.52;6.20;;;3.80;99.90;;;;;;5021633;28;20042;-66
2023/12/12 04:17:32;;;;;;;24.38;6.28;;;3.80;99.90;;;;;;5022686;28;20407;-66
2023/12/12 04:19:57;;;;;;;25.65;6.35;;;3.80;99.90;;;;;;5008238;28;20049;-66
2023/12/12 04:22:23;;;;;;;17.50;5.80;;;3.80;99.90;;;;;;5018337;28;20574;-66
2023/12/12 04:24:49;;;;;;;12.32;6.25;;;3.80;99.90;;;;;;5021016;28;20392;-66
2023/12/12 04:27:14;;;;;;;11.48;5.18;;;3.80;99.90;;;;;;5024222;28;20479;-66
2023/12/12 04:29:40;;;;;;;11.07;6.00;;;3.80;99.90;;;;;;5026742;28;20124;-65
2023/12/12 04:32:06;;;;;;;26.55;6.25;;;3.80;99.90;;;;;;5025213;28;20066;-66
2023/12/12 04:34:32;;;;;;;51.47;7.53;;;3.70;99.90;;;;;;5025552;28;20042;-66
2023/12/12 04:36:59;;;;;;;57.00;7.15;;;3.80;99.90;;;;;;5025968;28;20119;-66
2023/12/12 04:39:26;;;;;;;53.20;5.55;;;3.80;99.90;;;;;;5026870;28;20056;-66
2023/12/12 04:41:51;;;;;;;63.67;6.72;;;3.80;99.90;;;;;;5024219;28;20056;-66
2023/12/12 04:44:18;;;;;;;97.13;6.53;;;3.80;99.90;;;;;;5022788;28;20395;-66
2023/12/12 04:46:44;;;;;;;118.70;7.47;;;3.70;99.90;;;;;;5024085;28;20045;-66
2023/12/12 04:49:10;;;;;;;104.75;7.15;;;3.70;99.90;;;;;;5023965;28;20049;-66
2023/12/12 04:51:35;;;;;;;100.88;6.75;;;3.70;99.90;;;;;;5024296;28;20124;-66
2023/12/12 04:54:01;;;;;;;99.07;7.60;;;3.70;99.90;;;;;;5024295;28;20045;-66
2023/12/12 04:56:26;;;;;;;61.70;6.50;;;3.70;99.90;;;;;;5008658;28;20037;-66
2023/12/12 04:58:52;;;;;;;36.20;5.60;;;3.60;99.90;;;;;;5023420;28;20061;-66
2023/12/12 05:01:18;;;;;;;20.80;6.20;;;3.60;99.90;;;;;;5006315;28;20037;-66
2023/12/12 05:03:44;;;;;;;67.57;8.60;;;3.30;99.90;;;;;;5022069;28;20452;-66
2023/12/12 05:06:10;;;;;;;92.70;7.45;;;3.60;99.90;;;;;;5023267;28;20107;-66
2023/12/12 05:08:36;;;;;;;85.82;7.07;;;3.60;99.90;;;;;;5025047;28;20072;-66
2023/12/12 05:11:01;;;;;;;52.53;5.70;;;3.60;99.90;;;;;;5026212;28;20041;-66
2023/12/12 05:13:27;;;;;;;28.60;6.00;;;3.70;99.90;;;;;;5024728;28;20488;-66
2023/12/12 05:15:53;;;;;;;45.45;5.57;;;3.70;99.90;;;;;;5026571;28;20069;-66
2023/12/12 05:18:19;;;;;;;30.83;5.35;;;3.60;99.90;;;;;;5026810;28;20034;-66
2023/12/12 05:20:45;;;;;;;52.90;4.82;;;3.60;99.90;;;;;;5024720;28;20096;-66
2023/12/12 05:23:11;;;;;;;23.67;4.20;;;3.60;99.90;;;;;;5025065;28;20091;-66
2023/12/12 05:25:37;;;;;;;26.98;4.07;;;3.50;99.90;;;;;;5028718;28;20518;-66
2023/12/12 05:28:03;;;;;;;77.80;5.97;;;3.40;99.90;;;;;;5027686;28;20046;-66
2023/12/12 05:30:28;;;;;;;24.35;4.97;;;3.40;99.90;;;;;;5026457;28;20042;-66
2023/12/12 05:32:54;;;;;;;147.73;7.57;;;3.40;99.90;;;;;;5025497;28;20048;-66
2023/12/12 05:35:19;;;;;;;145.25;8.00;;;3.50;99.90;;;;;;5024210;28;20256;-66
2023/12/12 05:37:45;;;;;;;123.07;8.18;;;3.50;99.90;;;;;;5019706;28;20514;-66
2023/12/12 05:40:14;;;;;;;99.78;6.95;;;3.60;99.90;;;;;;5020594;28;20053;-66
2023/12/12 05:42:40;;;;;;;50.17;5.82;;;3.60;99.90;;;;;;5022107;28;20584;-66
2023/12/12 05:45:07;;;;;;;60.22;5.78;;;3.70;99.90;;;;;;5029017;28;20084;-66
2023/12/12 05:47:33;;;;;;;36.60;5.55;;;3.60;99.90;;;;;;5019729;28;20061;-66
2023/12/12 05:49:58;;;;;;;17.85;4.72;;;3.70;99.90;;;;;;5021507;28;20049;-66
2023/12/12 05:52:25;;;;;;;9.70;4.53;;;3.60;99.90;;;;;;5021863;28;20124;-66
2023/12/12 05:54:51;;;;;;;8.77;4.43;;;3.60;99.90;;;;;;5018753;28;20038;-66
2023/12/12 05:57:17;;;;;;;12.82;6.13;;;3.60;99.90;;;;;;5023277;28;20038;-66
2023/12/12 05:59:42;;;;;;;34.42;7.80;;;3.70;99.90;;;;;;5025378;28;20120;-66
2023/12/12 06:02:08;;;;;;;35.03;8.55;;;3.70;99.90;;;;;;5022770;28;20069;-66
2023/12/12 06:04:35;;;;;;;41.83;9.13;;;3.80;99.90;;;;;;5025348;28;20128;-66
2023/12/12 06:07:01;;;;;;;49.75;10.07;;;3.90;99.90;;;;;;5023914;28;20052;-66
2023/12/12 06:09:27;;;;;;;64.47;11.20;;;4.00;99.90;;;;;;5019676;28;20045;-66
2023/12/12 06:11:53;;;;;;;73.10;12.30;;;4.10;99.90;;;;;;5019613;28;20088;-66
2023/12/12 06:14:19;;;;;;;94.78;13.52;;;4.20;99.90;;;;;;5020529;28;20587;-66
2023/12/12 06:16:44;;;;;;;119.53;16.40;;;4.30;99.90;;;;;;5020970;28;20038;-66
2023/12/12 06:19:10;;;;;;;94.97;16.00;;;4.40;99.90;;;;;;5020135;28;20129;-66
2023/12/12 06:21:36;;;;;;;111.78;16.30;;;4.60;99.90;;;;;;5025849;28;20438;-66
2023/12/12 06:24:03;;;;;;;91.72;17.30;;;4.70;99.90;;;;;;5021729;28;20514;-66
2023/12/12 06:26:29;;;;;;;91.75;17.50;;;4.80;99.90;;;;;;5023376;28;20460;-67
2023/12/12 06:28:55;;;;;;;84.38;16.80;;;4.80;99.90;;;;;;5022750;28;20033;-67
2023/12/12 06:31:22;;;;;;;225.95;25.10;;;4.90;99.90;;;;;;5025250;28;20060;-67
2023/12/12 06:33:50;;;;;;;179.85;21.92;;;4.90;99.90;;;;;;5023815;28;20161;-66
2023/12/12 06:36:15;;;;;;;129.70;19.95;;;5.00;99.90;;;;;;5025830;28;20497;-67
2023/12/12 06:38:42;;;;;;;121.53;21.98;;;5.10;99.90;;;;;;5018698;28;20041;-67
2023/12/12 06:41:09;;;;;;;119.82;22.08;;;5.10;99.90;;;;;;5028044;28;20197;-66
2023/12/12 06:43:35;;;;;;;97.50;21.83;;;5.10;99.90;;;;;;5022494;28;20033;-67
2023/12/12 06:46:00;;;;;;;128.23;23.15;;;5.10;99.90;;;;;;5022761;28;20077;-66
2023/12/12 06:48:26;;;;;;;167.52;26.52;;;5.20;99.90;;;;;;5022963;28;20304;-67
2023/12/12 06:50:52;;;;;;;147.27;24.80;;;5.20;99.90;;;;;;5022878;28;20966;-67
2023/12/12 06:53:18;;;;;;;82.00;21.50;;;5.20;99.90;;;;;;5026440;28;20116;-67
2023/12/12 06:55:45;;;;;;;256.05;31.27;;;5.30;99.90;;;;;;5028214;28;20476;-66
2023/12/12 06:58:11;;;;;;;129.43;26.33;;;5.30;99.90;;;;;;5024357;28;20069;-67
2023/12/12 07:00:40;;;;;;;136.23;27.33;;;5.30;99.90;;;;;;5021956;28;20049;-67
2023/12/12 07:03:05;;;;;;;91.63;22.10;;;5.40;99.90;;;;;;5023729;28;20515;-67
2023/12/12 07:05:33;;;;;;;110.40;25.60;;;5.40;99.90;;;;;;5022879;28;20049;-67
2023/12/12 07:07:58;;;;;;;92.80;24.35;;;5.40;99.90;;;;;;5024843;28;20120;-67
2023/12/12 07:10:24;;;;;;;121.63;27.13;;;5.50;99.90;;;;;;5016921;28;20180;-67
2023/12/12 07:12:50;;;;;;;90.95;25.77;;;5.50;99.90;;;;;;5020431;28;20133;-67
2023/12/12 07:15:16;;;;;;;125.47;29.38;;;5.50;99.90;;;;;;5019968;28;20042;-67
2023/12/12 07:17:41;;;;;;;109.28;26.95;;;5.50;99.90;;;;;;5020324;28;20045;-67
2023/12/12 07:20:11;;;;;;;110.53;27.85;;;5.60;99.90;;;;;;5021878;28;20048;-66
2023/12/12 07:22:38;;;;;;;125.28;30.52;;;5.60;99.90;;;;;;5021935;28;20435;-67
2023/12/12 07:25:04;;;;;;;167.30;30.80;;;5.70;99.90;;;;;;5021219;28;20412;-67
2023/12/12 07:27:30;;;;;;;174.57;31.55;;;5.70;99.90;;;;;;5020344;28;20053;-67
2023/12/12 07:29:55;;;;;;;117.07;30.88;;;5.70;99.90;;;;;;5020492;28;20038;-67
2023/12/12 07:32:21;;;;;;;151.00;32.35;;;5.70;99.90;;;;;;5022311;28;20097;-66
2023/12/12 07:34:46;;;;;;;106.65;29.42;;;5.70;99.90;;;;;;5017846;28;20045;-67
2023/12/12 07:37:12;;;;;;;134.25;30.85;;;5.80;99.90;;;;;;5022071;28;20386;-67
2023/12/12 07:39:37;;;;;;;134.75;32.80;;;5.80;99.90;;;;;;5029487;28;20049;-67
2023/12/12 07:42:03;;;;;;;148.98;32.33;;;5.80;99.90;;;;;;5023590;28;20430;-66
2023/12/12 07:44:29;;;;;;;98.88;30.55;;;5.80;99.90;;;;;;5021192;28;20037;-66
2023/12/12 07:46:54;;;;;;;96.88;28.33;;;5.70;99.90;;;;;;5019615;28;20120;-67
2023/12/12 07:49:20;;;;;;;164.85;32.50;;;5.90;99.90;;;;;;5016889;28;20049;-67
2023/12/12 07:51:46;;;;;;;147.80;31.65;;;5.80;99.90;;;;;;5019474;28;20037;-67
2023/12/12 07:54:12;;;;;;;108.78;27.95;;;5.80;99.90;;;;;;5035032;28;20041;-67
2023/12/12 07:56:37;;;;;;;117.65;31.73;;;5.80;99.90;;;;;;5015569;28;20034;-67
2023/12/12 07:59:03;;;;;;;181.80;34.90;;;5.70;99.90;;;;;;5018477;28;20399;-67
2023/12/12 08:01:29;;;;;;;115.57;29.00;;;5.70;99.90;;;;;;5019171;28;20354;-67
2023/12/12 08:03:55;;;;;;;197.40;32.78;;;5.80;99.90;;;;;;5019350;28;20068;-67
2023/12/12 08:06:21;;;;;;;176.13;33.28;;;5.80;99.90;;;;;;5015696;28;20042;-67
2023/12/12 08:08:47;;;;;;;97.97;28.58;;;5.80;99.90;;;;;;5015244;28;20411;-67
2023/12/12 08:11:13;;;;;;;125.72;32.65;;;5.80;99.90;;;;;;5016054;28;20045;-67
2023/12/12 08:13:39;;;;;;;140.65;33.22;;;5.70;99.90;;;;;;5018484;28;20045;-67
2023/12/12 08:16:05;;;;;;;141.30;32.30;;;5.70;99.90;;;;;;5017128;28;20049;-67
2023/12/12 08:18:31;;;;;;;86.07;27.98;;;5.70;99.90;;;;;;5018269;28;20042;-67
2023/12/12 08:20:57;;;;;;;102.70;30.90;;;5.70;99.90;;;;;;5018560;28;20076;-67
2023/12/12 08:23:23;;;;;;;97.72;31.77;;;5.70;99.90;;;;;;5017449;28;20418;-67
2023/12/12 08:25:49;;;;;;;135.38;34.03;;;5.70;99.90;;;;;;5018813;28;20049;-67
2023/12/12 08:28:14;;;;;;;127.00;34.05;;;5.70;99.90;;;;;;5020611;28;20038;-67
2023/12/12 08:30:41;;;;;;;127.60;35.13;;;5.70;99.90;;;;;;5015854;28;20136;-66
2023/12/12 08:33:06;;;;;;;110.45;32.70;;;5.70;99.90;;;;;;5017607;28;20052;-67
2023/12/12 08:35:32;;;;;;;96.38;32.65;;;5.70;99.90;;;;;;5015100;28;20034;-67
2023/12/12 08:37:57;;;;;;;134.63;35.33;;;5.60;99.90;;;;;;5014165;28;20535;-67
2023/12/12 08:40:23;;;;;;;165.85;35.53;;;5.70;99.90;;;;;;5020288;28;20092;-67
2023/12/12 08:42:49;;;;;;;128.07;33.60;;;5.70;99.90;;;;;;5017854;28;20049;-66
2023/12/12 08:45:14;;;;;;;115.60;32.42;;;5.70;99.90;;;;;;5001985;28;20041;-67
2023/12/12 08:47:40;;;;;;;93.28;31.60;;;5.70;99.90;;;;;;5017940;28;20410;-67
2023/12/12 08:50:06;;;;;;;183.73;36.47;;;5.60;99.90;;;;;;5012040;28;20053;-67
2023/12/12 08:52:32;;;;;;;138.82;34.03;;;5.70;99.90;;;;;;5015933;28;20046;-67
2023/12/12 08:54:58;;;;;;;197.65;37.25;;;5.70;99.90;;;;;;5004384;28;20411;-66
2023/12/12 08:57:24;;;;;;;85.28;32.20;;;5.60;99.90;;;;;;5017238;28;20487;-67
2023/12/12 08:59:49;;;;;;;108.63;33.30;;;5.70;99.90;;;;;;5018976;28;20060;-67
2023/12/12 09:02:17;;;;;;;119.63;34.42;;;5.70;99.90;;;;;;5016730;28;20045;-67
2023/12/12 09:04:42;;;;;;;107.88;34.65;;;5.60;99.90;;;;;;5017376;28;20052;-66
2023/12/12 09:07:08;;;;;;;116.03;31.65;;;5.60;99.90;;;;;;5018047;28;20034;-67
2023/12/12 09:09:34;;;;;;;92.90;33.50;;;5.70;99.90;;;;;;5021432;28;20041;-66
2023/12/12 09:12:00;;;;;;;107.22;32.60;;;5.80;99.90;;;;;;5017079;28;20048;-66
2023/12/12 09:14:27;;;;;;;106.45;32.75;;;5.80;99.90;;;;;;5019994;28;20442;-67
2023/12/12 09:16:53;;;;;;;85.90;31.85;;;5.70;99.90;;;;;;5022713;28;20485;-66
2023/12/12 09:19:19;;;;;;;143.65;37.15;;;5.70;99.90;;;;;;5021485;28;20124;-67
2023/12/12 09:21:44;;;;;;;191.35;37.05;;;5.80;99.90;;;;;;5021432;28;20124;-67
2023/12/12 09:24:10;;;;;;;104.50;32.78;;;5.70;99.90;;;;;;5020791;28;20111;-66
2023/12/12 09:26:36;;;;;;;176.38;34.88;;;5.70;99.90;;;;;;5021312;28;20044;-66
2023/12/12 09:29:01;;;;;;;188.32;34.58;;;5.60;99.90;;;;;;5023969;28;20044;-66
2023/12/12 09:31:28;;;;;;;200.07;34.20;;;5.60;99.90;;;;;;5022935;28;20049;-66
2023/12/12 09:33:55;;;;;;;194.77;34.72;;;5.60;99.90;;;;;;5023924;28;20042;-66
2023/12/12 09:36:20;;;;;;;103.32;29.60;;;5.50;99.90;;;;;;5019122;28;20076;-66
2023/12/12 09:38:46;;;;;;;103.00;30.52;;;5.50;99.90;;;;;;5019009;28;20117;-66
2023/12/12 09:41:23;;;;;;;128.25;34.05;;;5.50;99.90;;;;;;5020687;28;20491;-67
2023/12/12 09:43:50;;;;;;;156.88;34.67;;;5.50;99.90;;;;;;5020780;28;20036;-66
2023/12/12 09:46:20;;;;;;;114.20;31.58;;;5.50;99.90;;;;;;5021562;28;20045;-67
2023/12/12 09:48:47;;;;;;;71.68;30.45;;;5.50;99.90;;;;;;5019422;28;20370;-66
2023/12/12 09:51:16;;;;;;;73.15;28.85;;;5.50;99.90;;;;;;5020601;28;20181;-66
2023/12/12 09:53:46;;;;;;;77.85;30.85;;;5.50;99.90;;;;;;5024426;28;20045;-66
2023/12/12 09:56:17;;;;;;;114.47;34.40;;;5.50;99.90;;;;;;5021054;28;20125;-66
2023/12/12 09:58:46;;;;;;;73.85;31.27;;;5.50;99.90;;;;;;5024668;28;20080;-67
2023/12/12 10:01:12;;;;;;;88.47;29.65;;;5.50;99.90;;;;;;5020710;28;20056;-67
2023/12/12 10:03:39;;;;;;;69.78;30.27;;;5.50;99.90;;;;;;5021456;28;20046;-67
2023/12/12 10:06:08;;;;;;;109.65;34.78;;;5.50;99.90;;;;;;5020139;28;20056;-67
2023/12/12 10:08:37;;;;;;;166.57;39.08;;;5.60;99.90;;;;;;5020857;28;20049;-66
2023/12/12 10:11:08;;;;;;;83.22;32.45;;;5.50;99.90;;;;;;5019920;28;20056;-67
2023/12/12 10:13:50;;;;;;;65.60;31.23;;;5.50;99.90;;;;;;5021375;28;20076;-67
2023/12/12 10:16:17;;;;;;;72.15;32.35;;;5.60;99.90;;;;;;5020643;28;20061;-67
2023/12/12 10:18:46;;;;;;;58.22;31.45;;;5.60;99.90;;;;;;5019324;28;20029;-67
2023/12/12 10:21:22;;;;;;;60.72;33.13;;;5.70;99.90;;;;;;5021513;28;20132;-66
2023/12/12 10:23:52;;;;;;;63.28;31.00;;;5.60;99.90;;;;;;5020809;28;20042;-67
2023/12/12 10:26:29;;;;;;;65.15;33.78;;;5.60;99.90;;;;;;5019166;28;20051;-66
2023/12/12 10:28:55;;;;;;;58.45;33.53;;;5.70;99.90;;;;;;5020966;28;20037;-66
2023/12/12 10:31:22;;;;;;;63.63;33.80;;;5.70;99.90;;;;;;5018772;28;20050;-66
2023/12/12 10:33:49;;;;;;;67.85;34.85;;;5.70;99.90;;;;;;5019614;28;20434;-67
2023/12/12 10:36:14;;;;;;;72.20;35.03;;;5.80;99.90;;;;;;5015358;28;20048;-66
2023/12/12 10:38:40;;;;;;;68.80;35.33;;;5.80;99.90;;;;;;5022304;28;20061;-66
2023/12/12 10:41:12;;;;;;;87.30;37.33;;;5.90;99.90;;;;;;5016297;28;20052;-66
2023/12/12 10:43:42;;;;;;;62.42;35.65;;;5.90;99.90;;;;;;5020045;28;20421;-66
2023/12/12 10:46:15;;;;;;;72.32;36.03;;;6.00;99.90;;;;;;5019500;28;20045;-67
2023/12/12 10:48:46;;;;;;;70.63;37.22;;;6.00;99.90;;;;;;5013477;28;20056;-66
2023/12/12 10:51:13;;;;;;;77.10;39.38;;;6.00;99.90;;;;;;5018177;28;20049;-66
2023/12/12 10:53:41;;;;;;;60.25;35.83;;;6.00;99.90;;;;;;5016959;28;20050;-67
2023/12/12 10:56:09;;;;;;;68.63;35.60;;;6.00;99.90;;;;;;5017543;28;20088;-66
2023/12/12 10:58:36;;;;;;;53.17;31.95;;;6.00;99.90;;;;;;5020281;28;20061;-67
2023/12/12 11:01:03;;;;;;;50.90;31.48;;;6.10;99.90;;;;;;5018302;28;20177;-66
2023/12/12 11:03:32;;;;;;;53.97;32.30;;;6.00;99.90;;;;;;5022496;28;20042;-66
2023/12/12 11:05:59;;;;;;;54.15;32.95;;;6.10;99.90;;;;;;5018704;28;20107;-66
2023/12/12 11:08:26;;;;;;;56.90;32.10;;;6.20;99.90;;;;;;5019085;28;20053;-66
2023/12/12 11:10:52;;;;;;;60.15;34.97;;;6.20;99.90;;;;;;5018950;28;20099;-66
2023/12/12 11:13:24;;;;;;;60.05;34.13;;;6.20;99.90;;;;;;5017744;28;20057;-66
2023/12/12 11:15:52;;;;;;;60.40;34.53;;;6.30;99.90;;;;;;5018904;28;20054;-67
2023/12/12 11:18:20;;;;;;;55.63;33.13;;;6.30;99.90;;;;;;5019745;28;20041;-66
2023/12/12 11:20:46;;;;;;;54.25;32.65;;;6.40;99.90;;;;;;5018172;28;20052;-66
2023/12/12 11:23:53;;;;;;;51.45;32.90;;;6.40;99.90;;;;;;5019688;28;20049;-66
2023/12/12 11:26:21;;;;;;;54.88;31.30;;;6.40;99.90;;;;;;5018770;28;20056;-66
2023/12/12 11:28:51;;;;;;;58.08;33.45;;;6.40;99.90;;;;;;5019824;28;20045;-66
2023/12/12 11:31:25;;;;;;;57.63;32.58;;;6.40;99.90;;;;;;5013008;28;21037;-66
2023/12/12 11:34:12;;;;;;;55.30;31.63;;;6.40;99.90;;;;;;5017876;28;20052;-66
2023/12/12 11:36:59;;;;;;;52.65;31.60;;;6.40;99.90;;;;;;5016601;28;20049;-66
2023/12/12 11:39:31;;;;;;;50.08;30.15;;;6.40;99.90;;;;;;5017454;28;20037;-66
2023/12/12 11:42:03;;;;;;;55.83;30.55;;;6.30;99.90;;;;;;5017283;28;20053;-66
2023/12/12 11:44:42;;;;;;;49.15;29.58;;;6.40;99.90;;;;;;5019173;28;20042;-66
2023/12/12 11:47:15;;;;;;;55.75;30.92;;;6.40;99.90;;;;;;5014893;28;20399;-66
2023/12/12 11:49:43;;;;;;;55.92;30.80;;;6.40;99.90;;;;;;5015301;28;20140;-66
2023/12/12 11:52:09;;;;;;;67.05;34.00;;;6.30;99.90;;;;;;5019491;28;20057;-66
2023/12/12 11:54:35;;;;;;;59.17;33.25;;;6.40;99.90;;;;;;5020000;28;20384;-67
2023/12/12 11:57:02;;;;;;;72.50;34.95;;;6.40;99.90;;;;;;5016535;28;20076;-67
2023/12/12 11:59:29;;;;;;;66.93;35.28;;;6.40;99.90;;;;;;5029925;28;20495;-67
2023/12/12 12:01:55;;;;;;;69.70;33.95;;;6.40;99.90;;;;;;5017578;28;20052;-66
2023/12/12 12:04:22;;;;;;;75.70;33.75;;;6.40;99.90;;;;;;4999841;28;20073;-67
2023/12/12 12:06:52;;;;;;;69.93;33.92;;;6.40;99.90;;;;;;5017319;28;20095;-67
2023/12/12 12:09:19;;;;;;;65.25;33.35;;;6.40;99.90;;;;;;5017078;28;20834;-67
2023/12/12 12:11:51;;;;;;;65.95;34.25;;;6.50;99.90;;;;;;5017626;28;20060;-67
2023/12/12 12:14:22;;;;;;;70.65;32.85;;;6.50;99.90;;;;;;5016956;28;20064;-67
2023/12/12 12:16:55;;;;;;;68.60;33.30;;;6.60;99.90;;;;;;5017310;28;20038;-67
2023/12/12 12:19:35;;;;;;;77.18;34.45;;;6.50;99.90;;;;;;5014777;28;20054;-67
2023/12/12 12:22:02;;;;;;;79.70;36.00;;;6.50;99.90;;;;;;5020387;28;20064;-67
2023/12/12 12:24:29;;;;;;;71.97;32.00;;;6.50;99.90;;;;;;5003425;28;20065;-67
2023/12/12 12:26:55;;;;;;;65.82;32.13;;;6.60;99.90;;;;;;5015060;28;20061;-66
2023/12/12 12:29:21;;;;;;;72.22;33.05;;;6.60;99.90;;;;;;5014012;28;20348;-67
2023/12/12 12:31:47;;;;;;;71.55;33.15;;;6.60;99.90;;;;;;5010122;28;20038;-67
2023/12/12 12:34:20;;;;;;;62.08;30.25;;;6.70;99.90;;;;;;5016481;28;20037;-67
2023/12/12 12:36:50;;;;;;;72.45;30.73;;;6.70;99.90;;;;;;5015741;28;20047;-67
2023/12/12 12:39:16;;;;;;;67.22;30.85;;;6.70;99.90;;;;;;5017169;28;20092;-67